createdAt,value
2022-08-26T00:00:49.697Z,35.73
2022-08-26T00:03:24.028Z,34.35
2022-08-26T00:05:57.472Z,41.30
2022-08-26T00:08:30.670Z,40.67
2022-08-26T00:11:04.356Z,39.75
2022-08-26T00:13:38.830Z,37.70
2022-08-26T00:16:13.281Z,35.48
2022-08-26T00:18:46.495Z,37.78
2022-08-26T00:21:20.003Z,38.33
2022-08-26T00:23:53.166Z,38.63
2022-08-26T00:26:28.560Z,38.33
2022-08-26T00:29:01.346Z,41.50
2022-08-26T00:31:34.691Z,39.30
2022-08-26T00:34:11.210Z,43.08
2022-08-26T00:36:45.325Z,38.42
2022-08-26T00:39:19.987Z,42.23
2022-08-26T00:41:53.578Z,42.05
2022-08-26T00:44:27.002Z,41.90
2022-08-26T00:47:04.465Z,39.10
2022-08-26T00:49:41.504Z,43.13
2022-08-26T00:52:17.271Z,42.03
2022-08-26T00:54:53.310Z,34.10
2022-08-26T00:57:27.141Z,34.60
2022-08-26T01:00:02.825Z,31.90
2022-08-26T01:02:36.190Z,34.80
2022-08-26T01:05:12.980Z,31.75
2022-08-26T01:07:46.762Z,32.63
2022-08-26T01:10:22.875Z,28.67
2022-08-26T01:12:58.982Z,29.80
2022-08-26T01:15:35.047Z,24.92
2022-08-26T01:18:09.210Z,24.70
2022-08-26T01:20:47.692Z,27.13
2022-08-26T01:23:21.698Z,25.65
2022-08-26T01:25:59.038Z,26.37
2022-08-26T01:28:35.304Z,28.17
2022-08-26T01:31:14.317Z,25.17
2022-08-26T01:33:52.423Z,25.62
2022-08-26T01:36:26.636Z,24.70
2022-08-26T01:39:00.693Z,24.32
2022-08-26T01:41:38.693Z,35.75
2022-08-26T01:44:16.755Z,32.10
2022-08-26T01:46:53.630Z,36.48
2022-08-26T01:49:28.743Z,36.13
2022-08-26T01:52:07.622Z,36.25
2022-08-26T01:54:46.281Z,34.67
2022-08-26T01:57:20.544Z,38.05
2022-08-26T01:59:57.417Z,40.08
2022-08-26T02:02:32.078Z,37.97
2022-08-26T02:05:08.907Z,34.88
2022-08-26T02:07:43.685Z,36.67
2022-08-26T02:10:18.129Z,37.63
2022-08-26T02:12:53.654Z,38.28
2022-08-26T02:15:28.318Z,39.42
2022-08-26T02:18:03.984Z,38.10
2022-08-26T02:20:38.567Z,36.75
2022-08-26T02:23:12.879Z,37.20
2022-08-26T02:25:50.784Z,39.33
2022-08-26T02:28:27.046Z,36.77
2022-08-26T02:31:02.677Z,36.17
2022-08-26T02:33:37.026Z,35.65
2022-08-26T02:36:13.410Z,38.85
2022-08-26T02:38:47.452Z,37.38
2022-08-26T02:41:23.075Z,36.13
2022-08-26T02:43:57.103Z,33.67
2022-08-26T02:46:32.155Z,36.20
2022-08-26T02:49:06.722Z,36.08
2022-08-26T02:51:40.857Z,36.60
2022-08-26T02:54:17.231Z,38.83
2022-08-26T02:56:51.646Z,39.73
2022-08-26T02:59:25.654Z,38.17
2022-08-26T03:02:01.538Z,37.83
2022-08-26T03:04:35.818Z,37.45
2022-08-26T03:07:10.131Z,37.73
2022-08-26T03:09:44.200Z,38.35
2022-08-26T03:12:18.279Z,41.28
2022-08-26T03:14:52.783Z,41.42
2022-08-26T03:17:26.858Z,38.13
2022-08-26T03:20:00.698Z,36.68
2022-08-26T03:22:36.079Z,44.38
2022-08-26T03:25:13.489Z,41.40
2022-08-26T03:27:49.249Z,42.08
2022-08-26T03:30:45.073Z,45.35
2022-08-26T03:33:16.942Z,41.30
2022-08-26T03:35:50.902Z,47.50
2022-08-26T03:38:25.915Z,43.00
2022-08-26T03:41:00.753Z,40.17
2022-08-26T03:43:34.540Z,43.92
2022-08-26T03:46:09.040Z,47.88
2022-08-26T03:48:43.013Z,43.58
2022-08-26T03:51:18.222Z,48.40
2022-08-26T03:53:51.719Z,49.58
2022-08-26T03:56:25.036Z,42.15
2022-08-26T03:58:59.147Z,44.58
2022-08-26T04:01:33.618Z,43.98
2022-08-26T04:04:07.222Z,43.55
2022-08-26T04:06:44.562Z,44.20
2022-08-26T04:11:51.390Z,47.58
2022-08-26T04:14:26.222Z,44.05
2022-08-26T04:16:59.667Z,47.83
2022-08-26T04:19:33.707Z,47.55
2022-08-26T04:22:07.967Z,46.23
2022-08-26T04:24:41.397Z,49.77
2022-08-26T04:27:14.981Z,48.42
2022-08-26T04:29:53.566Z,48.42
2022-08-26T04:32:24.868Z,46.60
2022-08-26T04:34:58.079Z,45.05
2022-08-26T04:37:34.631Z,43.65
2022-08-26T04:40:10.404Z,47.80
2022-08-26T04:42:44.535Z,49.10
2022-08-26T04:45:18.006Z,47.83
2022-08-26T04:47:57.722Z,50.08
2022-08-26T04:50:31.094Z,48.20
2022-08-26T04:53:05.549Z,47.03
2022-08-26T04:55:42.860Z,47.23
2022-08-26T04:58:18.135Z,47.78
2022-08-26T05:00:53.578Z,47.78
2022-08-26T05:03:30.527Z,50.17
2022-08-26T05:06:06.276Z,46.42
2022-08-26T05:08:39.641Z,49.10
2022-08-26T05:11:14.490Z,45.17
2022-08-26T05:13:47.789Z,45.48
2022-08-26T05:16:21.087Z,48.38
2022-08-26T05:18:55.008Z,46.28
2022-08-26T05:21:29.899Z,46.85
2022-08-26T05:24:03.170Z,46.30
2022-08-26T05:26:36.656Z,44.83
2022-08-26T05:29:10.163Z,45.83
2022-08-26T05:31:43.423Z,46.18
2022-08-26T05:34:16.657Z,47.30
2022-08-26T05:36:49.777Z,43.73
2022-08-26T05:39:24.619Z,42.10
2022-08-26T05:41:57.861Z,42.78
2022-08-26T05:44:53.819Z,42.00
2022-08-26T05:47:07.576Z,42.38
2022-08-26T05:49:43.745Z,37.28
2022-08-26T05:52:16.979Z,33.23
2022-08-26T05:54:50.344Z,36.38
2022-08-26T05:57:23.540Z,28.60
2022-08-26T05:59:57.221Z,29.00
2022-08-26T06:02:30.804Z,29.80
2022-08-26T06:05:04.407Z,28.40
2022-08-26T06:07:56.913Z,24.50
2022-08-26T06:10:32.858Z,23.18
2022-08-26T06:13:11.913Z,24.45
2022-08-26T06:15:44.309Z,16.67
2022-08-26T06:18:20.135Z,15.43
2022-08-26T06:20:57.850Z,13.65
2022-08-26T06:23:48.842Z,14.95
2022-08-26T06:26:22.318Z,14.55
2022-08-26T06:28:56.198Z,13.03
2022-08-26T06:31:30.156Z,12.80
2022-08-26T06:34:08.539Z,11.18
2022-08-26T06:36:39.592Z,9.75
2022-08-26T06:39:14.710Z,10.48
2022-08-26T06:41:48.286Z,10.58
2022-08-26T06:44:23.505Z,10.18
2022-08-26T06:46:56.816Z,8.68
2022-08-26T06:49:30.438Z,10.23
2022-08-26T06:52:03.883Z,9.65
2022-08-26T06:54:37.251Z,9.38
2022-08-26T06:57:12.268Z,10.72
2022-08-26T06:59:48.173Z,9.38
2022-08-26T07:02:23.546Z,9.63
2022-08-26T07:04:58.667Z,10.55
2022-08-26T07:07:31.695Z,8.75
2022-08-26T07:10:05.271Z,10.23
2022-08-26T07:12:39.144Z,10.15
2022-08-26T07:15:14.365Z,9.15
2022-08-26T07:17:48.115Z,8.55
2022-08-26T07:20:21.894Z,8.93
2022-08-26T07:22:55.111Z,8.08
2022-08-26T07:25:28.235Z,7.92
2022-08-26T07:28:02.046Z,7.75
2022-08-26T07:30:39.184Z,7.83
2022-08-26T07:33:14.133Z,6.45
2022-08-26T07:35:47.469Z,6.67
2022-08-26T07:38:20.422Z,6.65
2022-08-26T07:40:53.819Z,7.58
2022-08-26T07:43:27.492Z,6.33
2022-08-26T07:46:03.114Z,6.30
2022-08-26T07:48:37.785Z,6.30
2022-08-26T07:51:11.051Z,6.40
2022-08-26T07:53:44.690Z,6.35
2022-08-26T07:56:19.635Z,6.85
2022-08-26T07:58:53.375Z,6.45
2022-08-26T08:01:29.090Z,7.67
2022-08-26T08:04:05.356Z,6.87
2022-08-26T08:09:13.038Z,6.00
2022-08-26T08:11:47.506Z,7.12
2022-08-26T08:14:22.293Z,7.78
2022-08-26T08:16:55.733Z,6.60
2022-08-26T08:19:36.639Z,5.90
2022-08-26T08:22:05.131Z,6.50
2022-08-26T08:27:12.537Z,6.92
2022-08-26T08:29:47.491Z,6.58
2022-08-26T08:32:21.002Z,7.37
2022-08-26T08:34:54.432Z,5.97
2022-08-26T08:37:27.780Z,6.45
2022-08-26T08:40:01.943Z,6.58
2022-08-26T08:42:46.889Z,6.55
2022-08-26T08:45:23.716Z,5.97
2022-08-26T08:47:59.813Z,7.10
2022-08-26T08:50:36.544Z,6.67
2022-08-26T08:53:16.022Z,7.30
2022-08-26T08:56:02.160Z,6.45
2022-08-26T08:58:46.534Z,6.75
2022-08-26T09:01:28.727Z,5.92
2022-08-26T09:04:12.070Z,6.67
2022-08-26T09:06:48.671Z,6.47
2022-08-26T09:09:25.943Z,7.47
2022-08-26T09:11:59.560Z,6.37
2022-08-26T09:14:33.865Z,6.67
2022-08-26T09:17:10.805Z,6.42
2022-08-26T09:19:47.009Z,6.60
2022-08-26T09:22:31.710Z,7.17
2022-08-26T09:25:06.374Z,7.87
2022-08-26T09:27:47.476Z,7.42
2022-08-26T09:30:26.598Z,6.87
2022-08-26T09:33:10.213Z,6.78
2022-08-26T09:35:44.574Z,6.85
2022-08-26T09:38:29.239Z,6.53
2022-08-26T09:41:05.120Z,7.00
2022-08-26T09:46:16.899Z,6.40
2022-08-26T09:48:51.803Z,6.70
2022-08-26T09:51:32.639Z,7.45
2022-08-26T09:54:08.135Z,6.42
2022-08-26T09:56:42.801Z,7.23
2022-08-26T09:59:18.900Z,7.15
2022-08-26T10:01:53.366Z,7.15
2022-08-26T10:04:28.315Z,6.12
2022-08-26T10:07:03.681Z,7.50
2022-08-26T10:09:39.605Z,6.70
2022-08-26T10:14:58.945Z,7.87
2022-08-26T10:17:38.337Z,7.97
2022-08-26T10:22:51.139Z,8.63
2022-08-26T10:25:28.703Z,7.85
2022-08-26T10:28:08.801Z,7.72
2022-08-26T10:30:47.434Z,6.97
2022-08-26T10:33:21.469Z,6.35
2022-08-26T10:35:59.400Z,6.72
2022-08-26T10:38:35.743Z,6.83
2022-08-26T10:41:16.834Z,6.28
2022-08-26T10:43:53.554Z,7.58
2022-08-26T10:46:30.502Z,6.97
2022-08-26T10:49:07.852Z,5.90
2022-08-26T10:51:46.474Z,6.42
2022-08-26T10:54:24.027Z,6.67
2022-08-26T10:57:02.470Z,7.62
2022-08-26T10:59:55.084Z,6.85
2022-08-26T11:02:32.426Z,6.72
2022-08-26T11:05:09.507Z,6.95
2022-08-26T11:07:46.273Z,7.25
2022-08-26T11:13:10.527Z,7.60
2022-08-26T11:16:03.504Z,8.80
2022-08-26T11:18:42.081Z,7.83
2022-08-26T11:22:06.719Z,7.50
2022-08-26T11:24:50.843Z,7.60
2022-08-26T11:27:56.245Z,7.28
2022-08-26T11:30:58.479Z,7.42
2022-08-26T11:34:03.895Z,6.80
2022-08-26T11:37:00.756Z,7.47
2022-08-26T11:39:38.407Z,6.85
2022-08-26T11:42:23.037Z,6.95
2022-08-26T11:44:58.889Z,6.83
2022-08-26T11:47:34.220Z,7.00
2022-08-26T11:50:17.547Z,7.12
2022-08-26T11:52:59.430Z,6.92
2022-08-26T11:55:34.855Z,7.33
2022-08-26T11:58:08.911Z,5.78
2022-08-26T12:00:50.797Z,6.50
2022-08-26T12:03:27.572Z,6.95
2022-08-26T12:06:01.751Z,6.53
2022-08-26T12:08:39.908Z,6.40
2022-08-26T12:11:17.654Z,5.72
2022-08-26T12:14:03.459Z,5.62
2022-08-26T12:19:27.385Z,5.50
2022-08-26T12:22:04.404Z,5.40
2022-08-26T12:24:39.808Z,5.20
2022-08-26T12:27:19.131Z,5.87
2022-08-26T12:30:08.401Z,5.50
2022-08-26T12:32:57.317Z,5.45
2022-08-26T12:35:22.479Z,5.03
2022-08-26T12:40:39.616Z,4.87
2022-08-26T12:43:17.279Z,5.47
2022-08-26T12:46:00.710Z,6.20
2022-08-26T12:48:38.561Z,5.65
2022-08-26T12:51:23.182Z,6.00
2022-08-26T12:54:00.616Z,5.65
2022-08-26T12:56:38.591Z,6.28
2022-08-26T12:59:23.377Z,5.70
2022-08-26T13:01:57.534Z,5.58
2022-08-26T13:04:41.940Z,5.30
2022-08-26T13:07:18.637Z,5.72
2022-08-26T13:09:54.580Z,5.60
2022-08-26T13:12:31.648Z,5.78
2022-08-26T13:15:07.990Z,5.17
2022-08-26T13:17:42.206Z,5.92
2022-08-26T13:20:16.295Z,5.22
2022-08-26T13:22:58.519Z,5.65
2022-08-26T13:25:27.113Z,5.78
2022-08-26T13:28:01.102Z,5.72
2022-08-26T13:30:34.852Z,6.00
2022-08-26T13:33:09.378Z,5.70
2022-08-26T13:35:44.765Z,6.15
2022-08-26T13:38:33.013Z,5.85
2022-08-26T13:40:54.434Z,5.78
2022-08-26T13:43:28.865Z,6.00
2022-08-26T13:46:03.150Z,5.10
2022-08-26T13:48:38.282Z,6.62
2022-08-26T13:51:13.953Z,5.50
2022-08-26T13:53:48.041Z,6.05
2022-08-26T13:56:23.002Z,5.17
2022-08-26T13:58:57.188Z,5.10
2022-08-26T14:01:32.594Z,5.35
2022-08-26T14:04:07.395Z,5.83
2022-08-26T14:06:41.234Z,5.37
2022-08-26T14:09:15.268Z,5.40
2022-08-26T14:11:54.462Z,5.30
2022-08-26T14:14:25.189Z,5.87
2022-08-26T14:17:00.504Z,6.50
2022-08-26T14:19:34.841Z,5.70
2022-08-26T14:22:12.500Z,7.28
2022-08-26T14:24:46.517Z,6.42
2022-08-26T14:27:20.804Z,6.20
2022-08-26T14:29:54.865Z,5.62
2022-08-26T14:32:30.360Z,5.72
2022-08-26T14:35:04.422Z,5.37
2022-08-26T14:37:38.408Z,5.30
2022-08-26T14:40:14.982Z,6.83
2022-08-26T14:42:53.804Z,6.87
2022-08-26T14:45:29.056Z,6.33
2022-08-26T14:48:03.004Z,6.15
2022-08-26T14:50:37.302Z,6.55
2022-08-26T14:53:28.751Z,6.22
2022-08-26T14:56:02.650Z,6.12
2022-08-26T14:58:38.421Z,6.92
2022-08-26T15:01:13.020Z,6.25
2022-08-26T15:03:48.974Z,7.33
2022-08-26T15:06:23.754Z,6.70
2022-08-26T15:08:57.665Z,6.58
2022-08-26T15:11:31.700Z,6.42
2022-08-26T15:14:07.487Z,7.37
2022-08-26T15:16:43.319Z,6.40
2022-08-26T15:19:18.925Z,7.47
2022-08-26T15:21:53.231Z,7.50
2022-08-26T15:24:28.943Z,6.55
2022-08-26T15:27:02.962Z,7.03
2022-08-26T15:29:37.528Z,6.83
2022-08-26T15:32:11.499Z,6.30
2022-08-26T15:34:45.446Z,6.45
2022-08-26T15:37:19.359Z,7.25
2022-08-26T15:39:53.796Z,7.60
2022-08-26T15:42:27.761Z,7.10
2022-08-26T15:45:01.858Z,8.03
2022-08-26T15:47:55.917Z,7.53
2022-08-26T15:50:13.384Z,7.08
2022-08-26T15:52:47.913Z,7.78
2022-08-26T15:55:23.385Z,8.08
2022-08-26T15:57:57.657Z,6.97
2022-08-26T16:00:31.521Z,7.42
2022-08-26T16:03:08.604Z,7.65
2022-08-26T16:05:44.305Z,7.37
2022-08-26T16:08:18.363Z,7.87
2022-08-26T16:10:52.981Z,7.33
2022-08-26T16:13:26.924Z,7.33
2022-08-26T16:16:03.098Z,7.90
2022-08-26T16:18:38.064Z,8.20
2022-08-26T16:21:14.177Z,8.40
2022-08-26T16:23:48.679Z,8.75
2022-08-26T16:26:25.414Z,8.40
2022-08-26T16:28:59.472Z,8.20
2022-08-26T16:31:33.489Z,7.53
2022-08-26T16:34:08.170Z,8.43
2022-08-26T16:36:42.360Z,8.15
2022-08-26T16:39:16.435Z,7.78
2022-08-26T16:41:50.428Z,7.85
2022-08-26T16:44:25.034Z,10.32
2022-08-26T16:47:00.691Z,8.00
2022-08-26T16:49:34.656Z,9.50
2022-08-26T16:52:10.095Z,8.23
2022-08-26T16:54:44.287Z,9.83
2022-08-26T16:57:18.193Z,8.50
2022-08-26T16:59:52.202Z,9.50
2022-08-26T17:02:26.688Z,9.90
2022-08-26T17:05:00.840Z,9.75
2022-08-26T17:07:35.801Z,9.43
2022-08-26T17:10:13.001Z,9.53
2022-08-26T17:12:47.091Z,10.63
2022-08-26T17:15:22.127Z,10.13
2022-08-26T17:17:56.189Z,10.98
2022-08-26T17:20:30.124Z,9.70
2022-08-26T17:23:03.401Z,9.43
2022-08-26T17:25:36.771Z,8.95
2022-08-26T17:28:13.500Z,10.65
2022-08-26T17:30:45.216Z,9.63
2022-08-26T17:33:24.448Z,9.80
2022-08-26T17:35:55.218Z,9.28
2022-08-26T17:38:29.669Z,10.38
2022-08-26T17:41:03.101Z,8.80
2022-08-26T17:43:36.665Z,9.48
2022-08-26T17:46:11.491Z,9.55
2022-08-26T17:48:45.504Z,10.82
2022-08-26T17:51:20.167Z,9.75
2022-08-26T17:53:53.922Z,9.53
2022-08-26T17:56:30.061Z,9.55
2022-08-26T17:59:04.105Z,9.08
2022-08-26T18:01:38.714Z,9.50
2022-08-26T18:04:14.906Z,9.60
2022-08-26T18:06:48.275Z,9.63
2022-08-26T18:09:21.751Z,9.35
2022-08-26T18:11:54.959Z,8.38
2022-08-26T18:14:28.254Z,9.58
2022-08-26T18:17:01.526Z,9.08
2022-08-26T18:19:35.427Z,8.33
2022-08-26T18:22:08.871Z,9.25
2022-08-26T18:24:42.382Z,9.45
2022-08-26T18:27:17.401Z,8.75
2022-08-26T18:29:50.664Z,9.48
2022-08-26T18:32:23.934Z,9.75
2022-08-26T18:34:57.236Z,9.70
2022-08-26T18:37:31.638Z,9.45
2022-08-26T18:40:08.420Z,10.00
2022-08-26T18:42:42.295Z,10.20
2022-08-26T18:45:16.362Z,9.73
2022-08-26T18:47:49.591Z,8.88
2022-08-26T18:50:23.104Z,10.25
2022-08-26T18:52:56.407Z,10.00
2022-08-26T18:55:29.812Z,9.48
2022-08-26T18:58:03.126Z,10.32
2022-08-26T19:00:36.390Z,10.23
2022-08-26T19:03:18.712Z,9.65
2022-08-26T19:05:45.775Z,10.00
2022-08-26T19:08:19.065Z,9.80
2022-08-26T19:10:52.369Z,11.05
2022-08-26T19:13:26.267Z,11.12
2022-08-26T19:15:59.585Z,11.38
2022-08-26T19:18:34.784Z,10.32
2022-08-26T19:21:08.401Z,10.48
2022-08-26T19:23:42.404Z,10.13
2022-08-26T19:26:17.500Z,11.00
2022-08-26T19:28:50.996Z,11.80
2022-08-26T19:31:24.807Z,10.53
2022-08-26T19:33:59.173Z,11.57
2022-08-26T19:36:32.997Z,11.35
2022-08-26T19:39:10.448Z,10.72
2022-08-26T19:44:20.327Z,11.70
2022-08-26T19:46:57.116Z,11.70
2022-08-26T19:49:30.816Z,11.90
2022-08-26T19:52:07.375Z,13.03
2022-08-26T19:54:41.806Z,14.15
2022-08-26T19:57:16.547Z,12.65
2022-08-26T19:59:50.265Z,12.93
2022-08-26T20:02:23.845Z,13.43
2022-08-26T20:04:57.699Z,12.60
2022-08-26T20:07:31.280Z,12.88
2022-08-26T20:10:05.644Z,13.15
2022-08-26T20:12:39.236Z,12.68
2022-08-26T20:15:14.440Z,13.78
2022-08-26T20:17:47.793Z,13.90
2022-08-26T20:20:40.766Z,12.60
2022-08-26T20:23:15.835Z,14.43
2022-08-26T20:25:49.081Z,13.18
2022-08-26T20:28:22.814Z,14.25
2022-08-26T20:30:56.377Z,14.33
2022-08-26T20:33:30.489Z,14.20
2022-08-26T20:36:08.108Z,14.63
2022-08-26T20:38:41.787Z,15.70
2022-08-26T20:41:15.593Z,14.33
2022-08-26T20:43:49.241Z,15.85
2022-08-26T20:46:24.870Z,15.03
2022-08-26T20:48:58.234Z,14.13
2022-08-26T20:51:32.323Z,15.05
2022-08-26T20:54:06.341Z,14.68
2022-08-26T20:56:40.573Z,15.50
2022-08-26T20:59:14.359Z,14.35
2022-08-26T21:01:51.935Z,14.30
2022-08-26T21:06:58.523Z,14.38
2022-08-26T21:09:31.895Z,14.58
2022-08-26T21:12:06.116Z,14.93
2022-08-26T21:14:39.591Z,14.03
2022-08-26T21:17:13.201Z,15.38
2022-08-26T21:19:46.659Z,14.80
2022-08-26T21:22:20.560Z,12.70
2022-08-26T21:24:54.146Z,13.68
2022-08-26T21:27:28.015Z,14.00
2022-08-26T21:30:01.609Z,15.60
2022-08-26T21:32:36.211Z,14.10
2022-08-26T21:35:11.632Z,14.28
2022-08-26T21:37:45.157Z,13.58
2022-08-26T21:40:19.223Z,13.80
2022-08-26T21:42:52.616Z,14.40
2022-08-26T21:45:26.099Z,14.53
2022-08-26T21:47:59.870Z,14.28
2022-08-26T21:50:33.397Z,14.73
2022-08-26T21:53:06.899Z,14.63
2022-08-26T21:55:42.368Z,14.15
2022-08-26T21:58:16.448Z,14.07
2022-08-26T22:00:52.181Z,14.68
2022-08-26T22:03:25.992Z,13.32
2022-08-26T22:06:01.315Z,13.90
2022-08-26T22:08:35.206Z,13.45
2022-08-26T22:11:09.628Z,12.30
2022-08-26T22:13:44.427Z,15.03
2022-08-26T22:16:19.304Z,14.53
2022-08-26T22:18:53.452Z,15.00
2022-08-26T22:21:28.875Z,13.00
2022-08-26T22:24:03.002Z,15.88
2022-08-26T22:26:37.268Z,13.83
2022-08-26T22:29:10.849Z,15.30
2022-08-26T22:31:45.413Z,13.18
2022-08-26T22:34:20.863Z,13.05
2022-08-26T22:36:54.702Z,13.20
2022-08-26T22:39:29.021Z,15.00
2022-08-26T22:42:04.284Z,15.43
2022-08-26T22:44:37.863Z,14.75
2022-08-26T22:47:11.568Z,14.83
2022-08-26T22:49:45.868Z,15.00
2022-08-26T22:52:19.230Z,15.00
2022-08-26T22:54:53.088Z,15.85
2022-08-26T22:57:26.844Z,15.10
2022-08-26T23:00:00.963Z,14.93
2022-08-26T23:02:35.146Z,17.05
2022-08-26T23:05:11.612Z,14.58
2022-08-26T23:07:45.055Z,15.03
2022-08-26T23:10:18.880Z,16.85
2022-08-26T23:12:53.275Z,14.70
2022-08-26T23:15:27.492Z,15.88
2022-08-26T23:18:01.393Z,15.00
2022-08-26T23:20:36.096Z,16.10
2022-08-26T23:23:10.713Z,16.70
2022-08-26T23:25:44.556Z,15.80
2022-08-26T23:28:18.623Z,14.93
2022-08-26T23:30:53.810Z,15.95
2022-08-26T23:33:29.342Z,15.60
2022-08-26T23:36:08.534Z,15.48
2022-08-26T23:38:42.860Z,15.98
2022-08-26T23:41:17.208Z,16.48
2022-08-26T23:43:50.853Z,16.93
2022-08-26T23:46:24.547Z,17.42
2022-08-26T23:48:58.050Z,15.53
2022-08-26T23:51:49.472Z,15.50
2022-08-26T23:54:22.939Z,15.70
2022-08-26T23:56:57.036Z,16.85
2022-08-26T23:59:30.605Z,16.50
